sensor_id;sensor_type;location;lat;lon;timestamp;pressure;altitude;pressure_sealevel;temperature;humidity
18988;BME280;5494;51.796;10.952;2023-04-28T00:00:08;99170.47;;;6.72;59.18
18988;BME280;5494;51.796;10.952;2023-04-28T00:02:37;99174.88;;;6.70;59.38
18988;BME280;5494;51.796;10.952;2023-04-28T00:05:06;99174.75;;;6.73;59.53
18988;BME280;5494;51.796;10.952;2023-04-28T00:07:36;99168.91;;;6.68;60.95
18988;BME280;5494;51.796;10.952;2023-04-28T00:10:05;99176.75;;;6.65;61.56
18988;BME280;5494;51.796;10.952;2023-04-28T00:12:33;99160.03;;;6.77;60.69
18988;BME280;5494;51.796;10.952;2023-04-28T00:15:01;99160.75;;;6.80;60.23
18988;BME280;5494;51.796;10.952;2023-04-28T00:17:29;99156.19;;;6.88;60.03
18988;BME280;5494;51.796;10.952;2023-04-28T00:19:57;99149.38;;;6.86;59.66
18988;BME280;5494;51.796;10.952;2023-04-28T00:22:25;99147.72;;;7.09;58.58
18988;BME280;5494;51.796;10.952;2023-04-28T00:24:55;99149.28;;;6.89;59.26
18988;BME280;5494;51.796;10.952;2023-04-28T00:27:22;99142.06;;;6.72;60.26
18988;BME280;5494;51.796;10.952;2023-04-28T00:29:50;99139.81;;;6.63;60.31
18988;BME280;5494;51.796;10.952;2023-04-28T00:32:19;99132.16;;;6.60;60.49
18988;BME280;5494;51.796;10.952;2023-04-28T00:34:47;99133.78;;;6.62;59.94
18988;BME280;5494;51.796;10.952;2023-04-28T00:37:15;99130.38;;;6.62;59.78
18988;BME280;5494;51.796;10.952;2023-04-28T00:39:42;99127.63;;;6.66;59.79
18988;BME280;5494;51.796;10.952;2023-04-28T00:42:14;99126.13;;;6.59;59.46
18988;BME280;5494;51.796;10.952;2023-04-28T00:44:42;99126.16;;;6.58;60.46
18988;BME280;5494;51.796;10.952;2023-04-28T00:47:10;99121.97;;;6.55;61.47
18988;BME280;5494;51.796;10.952;2023-04-28T00:49:38;99115.81;;;6.59;61.20
18988;BME280;5494;51.796;10.952;2023-04-28T00:52:06;99116.78;;;6.57;61.44
18988;BME280;5494;51.796;10.952;2023-04-28T00:54:35;99114.03;;;6.61;63.10
18988;BME280;5494;51.796;10.952;2023-04-28T00:57:03;99110.75;;;6.56;62.45
18988;BME280;5494;51.796;10.952;2023-04-28T00:59:33;99107.31;;;6.56;61.48
18988;BME280;5494;51.796;10.952;2023-04-28T01:02:02;99102.94;;;6.58;62.53
18988;BME280;5494;51.796;10.952;2023-04-28T01:04:32;99107.25;;;6.57;62.27
18988;BME280;5494;51.796;10.952;2023-04-28T01:07:02;99111.47;;;6.60;61.81
18988;BME280;5494;51.796;10.952;2023-04-28T01:09:30;99105.06;;;6.71;61.18
18988;BME280;5494;51.796;10.952;2023-04-28T01:11:58;99106.88;;;6.69;61.09
18988;BME280;5494;51.796;10.952;2023-04-28T01:14:41;99105.19;;;6.68;61.64
18988;BME280;5494;51.796;10.952;2023-04-28T01:17:10;99098.28;;;6.69;61.08
18988;BME280;5494;51.796;10.952;2023-04-28T01:19:38;99092.78;;;6.78;61.52
18988;BME280;5494;51.796;10.952;2023-04-28T01:22:07;99088.22;;;6.86;60.66
18988;BME280;5494;51.796;10.952;2023-04-28T01:24:37;99093.53;;;6.82;60.72
18988;BME280;5494;51.796;10.952;2023-04-28T01:27:06;99085.31;;;6.95;59.84
18988;BME280;5494;51.796;10.952;2023-04-28T01:29:36;99078.16;;;7.27;58.68
18988;BME280;5494;51.796;10.952;2023-04-28T01:32:04;99078.75;;;7.35;57.73
18988;BME280;5494;51.796;10.952;2023-04-28T01:34:33;99083.69;;;7.18;58.35
18988;BME280;5494;51.796;10.952;2023-04-28T01:37:04;99082.34;;;7.06;59.94
18988;BME280;5494;51.796;10.952;2023-04-28T01:39:32;99074.72;;;7.26;59.25
18988;BME280;5494;51.796;10.952;2023-04-28T01:42:03;99074.72;;;7.26;58.24
18988;BME280;5494;51.796;10.952;2023-04-28T01:44:32;99075.94;;;7.41;57.89
18988;BME280;5494;51.796;10.952;2023-04-28T01:47:00;99068.25;;;7.39;58.03
18988;BME280;5494;51.796;10.952;2023-04-28T01:49:28;99067.31;;;7.40;57.29
18988;BME280;5494;51.796;10.952;2023-04-28T01:51:56;99064.03;;;7.37;56.78
18988;BME280;5494;51.796;10.952;2023-04-28T01:54:24;99049.78;;;7.48;56.50
18988;BME280;5494;51.796;10.952;2023-04-28T01:56:53;99045.31;;;7.54;56.05
18988;BME280;5494;51.796;10.952;2023-04-28T01:59:22;99048.06;;;7.49;56.42
18988;BME280;5494;51.796;10.952;2023-04-28T02:01:50;99044.13;;;7.39;56.61
18988;BME280;5494;51.796;10.952;2023-04-28T02:04:18;99053.63;;;7.38;57.37
18988;BME280;5494;51.796;10.952;2023-04-28T02:06:46;99053.53;;;7.40;56.92
18988;BME280;5494;51.796;10.952;2023-04-28T02:09:14;99051.72;;;7.43;56.95
18988;BME280;5494;51.796;10.952;2023-04-28T02:11:42;99049.97;;;7.44;57.02
18988;BME280;5494;51.796;10.952;2023-04-28T02:14:11;99050.91;;;7.41;57.35
18988;BME280;5494;51.796;10.952;2023-04-28T02:16:40;99048.28;;;7.43;57.12
18988;BME280;5494;51.796;10.952;2023-04-28T02:19:10;99037.84;;;7.46;57.53
18988;BME280;5494;51.796;10.952;2023-04-28T02:21:38;99038.78;;;7.43;57.44
18988;BME280;5494;51.796;10.952;2023-04-28T02:24:07;99039.63;;;7.44;57.34
18988;BME280;5494;51.796;10.952;2023-04-28T02:26:35;99030.31;;;7.62;56.83
18988;BME280;5494;51.796;10.952;2023-04-28T02:29:03;99039.91;;;7.60;56.92
18988;BME280;5494;51.796;10.952;2023-04-28T02:31:31;99028.81;;;7.56;56.42
18988;BME280;5494;51.796;10.952;2023-04-28T02:34:01;99032.06;;;7.61;56.58
18988;BME280;5494;51.796;10.952;2023-04-28T02:36:28;99028.94;;;7.75;56.03
18988;BME280;5494;51.796;10.952;2023-04-28T02:38:58;99021.28;;;7.73;55.95
18988;BME280;5494;51.796;10.952;2023-04-28T02:41:26;99026.06;;;7.82;55.64
18988;BME280;5494;51.796;10.952;2023-04-28T02:43:56;99023.16;;;7.68;56.09
18988;BME280;5494;51.796;10.952;2023-04-28T02:46:24;99011.22;;;7.66;56.61
18988;BME280;5494;51.796;10.952;2023-04-28T02:48:52;99000.19;;;7.82;56.20
18988;BME280;5494;51.796;10.952;2023-04-28T02:51:21;99008.25;;;7.75;56.04
18988;BME280;5494;51.796;10.952;2023-04-28T02:53:50;99006.94;;;7.86;55.70
18988;BME280;5494;51.796;10.952;2023-04-28T02:56:18;98996.28;;;7.72;56.57
18988;BME280;5494;51.796;10.952;2023-04-28T02:58:46;98998.44;;;7.61;56.84
18988;BME280;5494;51.796;10.952;2023-04-28T03:01:14;98989.22;;;7.54;57.73
18988;BME280;5494;51.796;10.952;2023-04-28T03:03:42;98990.19;;;7.51;57.53
18988;BME280;5494;51.796;10.952;2023-04-28T03:06:10;98982.84;;;7.41;58.18
18988;BME280;5494;51.796;10.952;2023-04-28T03:08:40;98976.56;;;7.25;59.12
18988;BME280;5494;51.796;10.952;2023-04-28T03:11:08;98974.59;;;7.31;59.13
18988;BME280;5494;51.796;10.952;2023-04-28T03:13:37;98971.03;;;7.34;58.72
18988;BME280;5494;51.796;10.952;2023-04-28T03:16:06;98957.59;;;7.47;58.51
18988;BME280;5494;51.796;10.952;2023-04-28T03:18:34;98961.66;;;7.31;59.12
18988;BME280;5494;51.796;10.952;2023-04-28T03:21:02;98965.63;;;7.18;60.20
18988;BME280;5494;51.796;10.952;2023-04-28T03:23:31;98958.47;;;7.25;60.08
18988;BME280;5494;51.796;10.952;2023-04-28T03:26:00;98952.28;;;7.29;60.17
18988;BME280;5494;51.796;10.952;2023-04-28T03:28:28;98946.25;;;7.28;59.96
18988;BME280;5494;51.796;10.952;2023-04-28T03:30:58;98940.16;;;7.31;60.13
18988;BME280;5494;51.796;10.952;2023-04-28T03:33:26;98937.38;;;7.35;59.75
18988;BME280;5494;51.796;10.952;2023-04-28T03:35:54;98935.38;;;7.42;59.83
18988;BME280;5494;51.796;10.952;2023-04-28T03:38:22;98927.59;;;7.43;59.88
18988;BME280;5494;51.796;10.952;2023-04-28T03:40:50;98934.97;;;7.31;60.23
18988;BME280;5494;51.796;10.952;2023-04-28T03:43:38;98924.88;;;7.25;61.05
18988;BME280;5494;51.796;10.952;2023-04-28T03:46:19;98926.00;;;7.18;61.58
18988;BME280;5494;51.796;10.952;2023-04-28T03:48:48;98918.56;;;7.32;60.88
18988;BME280;5494;51.796;10.952;2023-04-28T03:51:18;98924.13;;;7.21;61.43
18988;BME280;5494;51.796;10.952;2023-04-28T03:53:46;98926.06;;;7.16;61.69
18988;BME280;5494;51.796;10.952;2023-04-28T03:56:14;98920.94;;;7.15;61.89
18988;BME280;5494;51.796;10.952;2023-04-28T03:58:44;98915.81;;;7.13;61.89
18988;BME280;5494;51.796;10.952;2023-04-28T04:01:12;98921.81;;;7.13;61.91
18988;BME280;5494;51.796;10.952;2023-04-28T04:03:40;98913.50;;;7.29;62.10
18988;BME280;5494;51.796;10.952;2023-04-28T04:06:08;98918.63;;;7.30;61.92
18988;BME280;5494;51.796;10.952;2023-04-28T04:08:36;98911.25;;;6.98;64.75
18988;BME280;5494;51.796;10.952;2023-04-28T04:11:05;98909.94;;;6.63;67.60
18988;BME280;5494;51.796;10.952;2023-04-28T04:13:33;98904.88;;;6.60;69.10
18988;BME280;5494;51.796;10.952;2023-04-28T04:16:07;98912.94;;;6.51;70.68
18988;BME280;5494;51.796;10.952;2023-04-28T04:18:35;98922.28;;;6.55;70.79
18988;BME280;5494;51.796;10.952;2023-04-28T04:21:18;98910.66;;;6.66;69.85
18988;BME280;5494;51.796;10.952;2023-04-28T04:23:49;98910.16;;;6.57;70.22
18988;BME280;5494;51.796;10.952;2023-04-28T04:26:17;98910.03;;;6.60;70.94
18988;BME280;5494;51.796;10.952;2023-04-28T04:28:47;98914.38;;;6.59;70.37
18988;BME280;5494;51.796;10.952;2023-04-28T04:31:16;98908.97;;;6.65;70.71
18988;BME280;5494;51.796;10.952;2023-04-28T04:33:45;98908.81;;;6.93;69.31
18988;BME280;5494;51.796;10.952;2023-04-28T04:36:14;98908.53;;;7.01;68.66
18988;BME280;5494;51.796;10.952;2023-04-28T04:38:42;98901.91;;;6.94;68.83
18988;BME280;5494;51.796;10.952;2023-04-28T04:41:17;98905.06;;;7.02;69.67
18988;BME280;5494;51.796;10.952;2023-04-28T04:43:47;98900.06;;;7.19;68.51
18988;BME280;5494;51.796;10.952;2023-04-28T04:46:17;98901.91;;;7.39;68.56
18988;BME280;5494;51.796;10.952;2023-04-28T04:48:46;98898.25;;;7.44;67.05
18988;BME280;5494;51.796;10.952;2023-04-28T04:51:13;98901.53;;;7.70;66.51
18988;BME280;5494;51.796;10.952;2023-04-28T04:53:41;98890.38;;;8.10;65.59
18988;BME280;5494;51.796;10.952;2023-04-28T04:56:10;98896.59;;;8.46;63.02
18988;BME280;5494;51.796;10.952;2023-04-28T04:58:37;98887.16;;;8.84;59.83
18988;BME280;5494;51.796;10.952;2023-04-28T05:01:25;98889.53;;;8.89;59.44
18988;BME280;5494;51.796;10.952;2023-04-28T05:03:53;98880.06;;;8.88;59.71
18988;BME280;5494;51.796;10.952;2023-04-28T05:06:21;98882.59;;;8.71;60.73
18988;BME280;5494;51.796;10.952;2023-04-28T05:08:49;98879.16;;;8.70;61.34
18988;BME280;5494;51.796;10.952;2023-04-28T05:11:17;98874.72;;;8.72;60.51
18988;BME280;5494;51.796;10.952;2023-04-28T05:13:45;98866.09;;;8.72;60.44
18988;BME280;5494;51.796;10.952;2023-04-28T05:16:14;98869.19;;;8.80;60.78
18988;BME280;5494;51.796;10.952;2023-04-28T05:18:58;98869.78;;;8.47;62.57
18988;BME280;5494;51.796;10.952;2023-04-28T05:21:26;98868.81;;;8.29;64.88
18988;BME280;5494;51.796;10.952;2023-04-28T05:23:55;98866.09;;;8.12;64.44
18988;BME280;5494;51.796;10.952;2023-04-28T05:26:23;98865.16;;;7.95;65.24
18988;BME280;5494;51.796;10.952;2023-04-28T05:28:54;98865.78;;;7.79;66.66
18988;BME280;5494;51.796;10.952;2023-04-28T05:31:22;98864.41;;;7.71;66.04
18988;BME280;5494;51.796;10.952;2023-04-28T05:33:51;98855.44;;;7.79;66.81
18988;BME280;5494;51.796;10.952;2023-04-28T05:36:20;98856.19;;;7.81;66.37
18988;BME280;5494;51.796;10.952;2023-04-28T05:38:48;98854.63;;;7.77;66.97
18988;BME280;5494;51.796;10.952;2023-04-28T05:41:17;98853.59;;;7.81;67.58
18988;BME280;5494;51.796;10.952;2023-04-28T05:43:45;98855.47;;;7.58;68.18
18988;BME280;5494;51.796;10.952;2023-04-28T05:46:17;98859.56;;;7.41;69.52
18988;BME280;5494;51.796;10.952;2023-04-28T05:48:58;98854.28;;;7.44;71.32
18988;BME280;5494;51.796;10.952;2023-04-28T05:51:32;98847.19;;;7.70;68.37
18988;BME280;5494;51.796;10.952;2023-04-28T05:54:01;98853.47;;;7.64;69.30
18988;BME280;5494;51.796;10.952;2023-04-28T05:56:30;98856.38;;;7.77;68.62
18988;BME280;5494;51.796;10.952;2023-04-28T05:58:59;98854.72;;;7.96;68.18
18988;BME280;5494;51.796;10.952;2023-04-28T06:01:30;98849.16;;;8.05;68.11
18988;BME280;5494;51.796;10.952;2023-04-28T06:03:58;98845.97;;;7.99;69.44
18988;BME280;5494;51.796;10.952;2023-04-28T06:06:27;98843.06;;;7.86;70.40
18988;BME280;5494;51.796;10.952;2023-04-28T06:08:57;98844.28;;;7.77;71.36
18988;BME280;5494;51.796;10.952;2023-04-28T06:11:25;98843.97;;;7.85;72.55
18988;BME280;5494;51.796;10.952;2023-04-28T06:13:53;98833.50;;;7.88;71.27
18988;BME280;5494;51.796;10.952;2023-04-28T06:16:21;98833.50;;;7.88;72.95
18988;BME280;5494;51.796;10.952;2023-04-28T06:18:50;98845.34;;;7.73;72.93
18988;BME280;5494;51.796;10.952;2023-04-28T06:21:19;98838.22;;;7.78;73.91
18988;BME280;5494;51.796;10.952;2023-04-28T06:23:47;98840.53;;;7.64;74.63
18988;BME280;5494;51.796;10.952;2023-04-28T06:26:17;98848.94;;;7.69;75.49
18988;BME280;5494;51.796;10.952;2023-04-28T06:28:45;98835.75;;;7.75;77.74
18988;BME280;5494;51.796;10.952;2023-04-28T06:31:13;98835.00;;;7.73;78.51
18988;BME280;5494;51.796;10.952;2023-04-28T06:33:44;98840.72;;;7.60;79.38
18988;BME280;5494;51.796;10.952;2023-04-28T06:36:12;98838.50;;;7.50;79.90
18988;BME280;5494;51.796;10.952;2023-04-28T06:38:42;98833.28;;;7.52;81.52
18988;BME280;5494;51.796;10.952;2023-04-28T06:41:10;98830.63;;;7.54;82.24
18988;BME280;5494;51.796;10.952;2023-04-28T06:43:42;98828.06;;;7.54;83.23
18988;BME280;5494;51.796;10.952;2023-04-28T06:46:15;98825.91;;;7.83;83.68
18988;BME280;5494;51.796;10.952;2023-04-28T06:48:43;98820.03;;;8.00;81.93
18988;BME280;5494;51.796;10.952;2023-04-28T06:51:13;98820.88;;;7.80;82.03
18988;BME280;5494;51.796;10.952;2023-04-28T06:53:42;98808.59;;;7.85;82.51
18988;BME280;5494;51.796;10.952;2023-04-28T06:56:10;98807.16;;;7.99;82.70
18988;BME280;5494;51.796;10.952;2023-04-28T06:58:38;98801.97;;;7.99;83.12
18988;BME280;5494;51.796;10.952;2023-04-28T07:01:07;98801.78;;;8.03;80.94
18988;BME280;5494;51.796;10.952;2023-04-28T07:03:35;98798.19;;;8.26;79.27
18988;BME280;5494;51.796;10.952;2023-04-28T07:06:05;98788.44;;;8.89;74.11
18988;BME280;5494;51.796;10.952;2023-04-28T07:08:33;98799.34;;;8.58;71.41
18988;BME280;5494;51.796;10.952;2023-04-28T07:11:02;98798.53;;;8.57;74.93
18988;BME280;5494;51.796;10.952;2023-04-28T07:13:31;98800.44;;;9.08;73.49
18988;BME280;5494;51.796;10.952;2023-04-28T07:15:59;98795.22;;;9.27;72.26
18988;BME280;5494;51.796;10.952;2023-04-28T07:18:28;98789.16;;;9.45;73.29
18988;BME280;5494;51.796;10.952;2023-04-28T07:20:56;98789.03;;;9.30;71.88
18988;BME280;5494;51.796;10.952;2023-04-28T07:23:24;98794.78;;;9.00;75.22
18988;BME280;5494;51.796;10.952;2023-04-28T07:25:52;98790.72;;;8.95;74.03
18988;BME280;5494;51.796;10.952;2023-04-28T07:28:20;98785.50;;;8.78;76.70
18988;BME280;5494;51.796;10.952;2023-04-28T07:30:48;98785.00;;;8.88;74.80
18988;BME280;5494;51.796;10.952;2023-04-28T07:33:16;98790.19;;;8.88;72.48
18988;BME280;5494;51.796;10.952;2023-04-28T07:35:46;98784.50;;;8.80;74.27
18988;BME280;5494;51.796;10.952;2023-04-28T07:38:15;98792.44;;;9.13;76.44
18988;BME280;5494;51.796;10.952;2023-04-28T07:40:44;98783.94;;;9.80;74.46
18988;BME280;5494;51.796;10.952;2023-04-28T07:43:12;98783.84;;;9.99;70.49
18988;BME280;5494;51.796;10.952;2023-04-28T07:45:40;98772.56;;;9.82;71.64
18988;BME280;5494;51.796;10.952;2023-04-28T07:48:11;98769.06;;;9.66;73.26
18988;BME280;5494;51.796;10.952;2023-04-28T07:50:39;98773.13;;;10.05;71.95
18988;BME280;5494;51.796;10.952;2023-04-28T07:53:08;98758.59;;;10.66;67.21
18988;BME280;5494;51.796;10.952;2023-04-28T07:55:37;98769.16;;;10.95;65.06
18988;BME280;5494;51.796;10.952;2023-04-28T07:58:07;98765.50;;;11.29;62.58
18988;BME280;5494;51.796;10.952;2023-04-28T08:00:36;98761.53;;;10.76;63.60
18988;BME280;5494;51.796;10.952;2023-04-28T08:03:06;98766.25;;;10.70;66.04
18988;BME280;5494;51.796;10.952;2023-04-28T08:05:35;98763.88;;;10.65;65.41
18988;BME280;5494;51.796;10.952;2023-04-28T08:08:03;98758.03;;;10.77;61.91
18988;BME280;5494;51.796;10.952;2023-04-28T08:10:33;98760.59;;;10.46;65.56
18988;BME280;5494;51.796;10.952;2023-04-28T08:13:01;98761.78;;;10.56;68.60
18988;BME280;5494;51.796;10.952;2023-04-28T08:15:29;98750.66;;;10.85;67.76
18988;BME280;5494;51.796;10.952;2023-04-28T08:17:57;98758.09;;;10.91;64.52
18988;BME280;5494;51.796;10.952;2023-04-28T08:20:25;98754.59;;;10.77;64.63
18988;BME280;5494;51.796;10.952;2023-04-28T08:22:53;98754.22;;;10.98;64.70
18988;BME280;5494;51.796;10.952;2023-04-28T08:25:21;98753.31;;;11.29;63.65
18988;BME280;5494;51.796;10.952;2023-04-28T08:27:51;98761.75;;;11.19;65.09
18988;BME280;5494;51.796;10.952;2023-04-28T08:30:22;98761.63;;;11.06;67.66
18988;BME280;5494;51.796;10.952;2023-04-28T08:32:50;98760.09;;;11.02;70.54
18988;BME280;5494;51.796;10.952;2023-04-28T08:35:18;98756.97;;;11.27;69.60
18988;BME280;5494;51.796;10.952;2023-04-28T08:37:47;98762.72;;;10.71;72.96
18988;BME280;5494;51.796;10.952;2023-04-28T08:40:15;98764.88;;;10.47;75.93
18988;BME280;5494;51.796;10.952;2023-04-28T08:42:44;98768.66;;;10.41;77.50
18988;BME280;5494;51.796;10.952;2023-04-28T08:45:14;98762.22;;;10.64;77.80
18988;BME280;5494;51.796;10.952;2023-04-28T08:47:42;98761.78;;;10.87;73.90
18988;BME280;5494;51.796;10.952;2023-04-28T08:50:14;98755.66;;;11.04;73.16
18988;BME280;5494;51.796;10.952;2023-04-28T08:52:42;98755.78;;;11.17;73.44
18988;BME280;5494;51.796;10.952;2023-04-28T08:55:11;98751.44;;;11.47;71.10
18988;BME280;5494;51.796;10.952;2023-04-28T08:57:43;98744.28;;;11.51;71.44
18988;BME280;5494;51.796;10.952;2023-04-28T09:00:14;98747.44;;;11.56;71.77
18988;BME280;5494;51.796;10.952;2023-04-28T09:02:42;98738.75;;;11.41;72.61
18988;BME280;5494;51.796;10.952;2023-04-28T09:05:12;98737.63;;;11.61;71.01
18988;BME280;5494;51.796;10.952;2023-04-28T09:07:40;98729.97;;;11.88;70.12
18988;BME280;5494;51.796;10.952;2023-04-28T09:10:20;98728.19;;;12.31;66.64
18988;BME280;5494;51.796;10.952;2023-04-28T09:12:52;98729.84;;;12.46;66.15
18988;BME280;5494;51.796;10.952;2023-04-28T09:15:32;98724.47;;;12.20;68.60
18988;BME280;5494;51.796;10.952;2023-04-28T09:18:01;98724.38;;;11.79;69.20
18988;BME280;5494;51.796;10.952;2023-04-28T09:20:31;98718.13;;;12.24;70.27
18988;BME280;5494;51.796;10.952;2023-04-28T09:23:15;98713.25;;;12.61;66.62
18988;BME280;5494;51.796;10.952;2023-04-28T09:26:03;98713.97;;;12.22;67.29
18988;BME280;5494;51.796;10.952;2023-04-28T09:28:33;98708.09;;;12.18;69.29
18988;BME280;5494;51.796;10.952;2023-04-28T09:31:04;98716.72;;;11.76;71.17
18988;BME280;5494;51.796;10.952;2023-04-28T09:33:31;98718.34;;;11.63;72.75
18988;BME280;5494;51.796;10.952;2023-04-28T09:36:00;98721.31;;;11.57;73.40
18988;BME280;5494;51.796;10.952;2023-04-28T09:38:28;98713.25;;;11.48;74.77
18988;BME280;5494;51.796;10.952;2023-04-28T09:40:58;98710.38;;;11.66;75.60
18988;BME280;5494;51.796;10.952;2023-04-28T09:43:29;98712.78;;;11.69;73.80
18988;BME280;5494;51.796;10.952;2023-04-28T09:46:00;98712.09;;;11.81;74.87
18988;BME280;5494;51.796;10.952;2023-04-28T09:48:32;98703.72;;;11.76;72.88
18988;BME280;5494;51.796;10.952;2023-04-28T09:51:03;98710.44;;;11.80;72.58
18988;BME280;5494;51.796;10.952;2023-04-28T09:53:32;98711.84;;;11.70;73.86
18988;BME280;5494;51.796;10.952;2023-04-28T09:56:03;98704.94;;;11.55;74.53
18988;BME280;5494;51.796;10.952;2023-04-28T09:58:38;98704.94;;;11.55;78.22
18988;BME280;5494;51.796;10.952;2023-04-28T10:01:09;98701.44;;;11.70;75.62
18988;BME280;5494;51.796;10.952;2023-04-28T10:03:41;98695.19;;;12.03;73.89
18988;BME280;5494;51.796;10.952;2023-04-28T10:06:11;98691.63;;;12.04;74.46
18988;BME280;5494;51.796;10.952;2023-04-28T10:08:39;98696.44;;;12.24;73.80
18988;BME280;5494;51.796;10.952;2023-04-28T10:11:08;98696.44;;;12.24;74.36
18988;BME280;5494;51.796;10.952;2023-04-28T10:13:36;98694.25;;;12.45;72.51
18988;BME280;5494;51.796;10.952;2023-04-28T10:16:06;98702.16;;;12.02;73.91
18988;BME280;5494;51.796;10.952;2023-04-28T10:18:36;98697.97;;;11.86;75.66
18988;BME280;5494;51.796;10.952;2023-04-28T10:21:06;98692.47;;;11.90;75.27
18988;BME280;5494;51.796;10.952;2023-04-28T10:24:02;98685.94;;;11.97;77.94
18988;BME280;5494;51.796;10.952;2023-04-28T10:27:06;98679.09;;;11.96;79.21
18988;BME280;5494;51.796;10.952;2023-04-28T10:29:35;98680.56;;;11.86;80.86
18988;BME280;5494;51.796;10.952;2023-04-28T10:32:23;98668.47;;;12.13;80.73
18988;BME280;5494;51.796;10.952;2023-04-28T10:35:40;98675.81;;;11.93;84.03
18988;BME280;5494;51.796;10.952;2023-04-28T10:38:12;98674.59;;;11.98;85.23
18988;BME280;5494;51.796;10.952;2023-04-28T10:40:41;98660.00;;;12.10;83.77
18988;BME280;5494;51.796;10.952;2023-04-28T10:43:11;98664.47;;;11.94;84.09
18988;BME280;5494;51.796;10.952;2023-04-28T10:46:02;98666.25;;;11.93;85.11
18988;BME280;5494;51.796;10.952;2023-04-28T10:49:05;98654.53;;;12.41;85.14
18988;BME280;5494;51.796;10.952;2023-04-28T10:51:34;98658.31;;;13.03;80.78
18988;BME280;5494;51.796;10.952;2023-04-28T10:54:17;98651.81;;;13.36;77.98
18988;BME280;5494;51.796;10.952;2023-04-28T10:57:17;98651.38;;;12.90;82.40
18988;BME280;5494;51.796;10.952;2023-04-28T10:59:47;98649.19;;;12.84;81.04
18988;BME280;5494;51.796;10.952;2023-04-28T11:02:40;98646.53;;;12.71;86.03
18988;BME280;5494;51.796;10.952;2023-04-28T11:05:15;98648.84;;;12.49;83.42
18988;BME280;5494;51.796;10.952;2023-04-28T11:08:30;98649.41;;;12.67;85.33
18988;BME280;5494;51.796;10.952;2023-04-28T11:11:24;98651.00;;;12.69;84.75
18988;BME280;5494;51.796;10.952;2023-04-28T11:13:56;98649.09;;;12.85;85.41
18988;BME280;5494;51.796;10.952;2023-04-28T11:16:51;98653.91;;;12.91;86.03
18988;BME280;5494;51.796;10.952;2023-04-28T11:19:22;98652.69;;;12.70;88.34
18988;BME280;5494;51.796;10.952;2023-04-28T11:21:52;98649.19;;;13.23;83.17
18988;BME280;5494;51.796;10.952;2023-04-28T11:24:20;98657.63;;;13.14;84.91
18988;BME280;5494;51.796;10.952;2023-04-28T11:26:51;98654.69;;;12.52;86.55
18988;BME280;5494;51.796;10.952;2023-04-28T11:29:30;98649.41;;;12.67;90.04
18988;BME280;5494;51.796;10.952;2023-04-28T11:32:01;98646.03;;;12.79;88.15
18988;BME280;5494;51.796;10.952;2023-04-28T11:34:31;98652.53;;;12.86;87.36
18988;BME280;5494;51.796;10.952;2023-04-28T11:36:59;98646.47;;;12.85;89.04
18988;BME280;5494;51.796;10.952;2023-04-28T11:39:30;98647.75;;;12.66;92.39
18988;BME280;5494;51.796;10.952;2023-04-28T11:42:00;98644.16;;;12.81;93.92
18988;BME280;5494;51.796;10.952;2023-04-28T11:44:30;98640.16;;;12.75;93.26
18988;BME280;5494;51.796;10.952;2023-04-28T11:47:02;98639.41;;;12.73;96.47
18988;BME280;5494;51.796;10.952;2023-04-28T11:49:41;98640.03;;;12.64;97.92
18988;BME280;5494;51.796;10.952;2023-04-28T11:52:10;98641.41;;;12.70;98.81
18988;BME280;5494;51.796;10.952;2023-04-28T11:54:39;98635.19;;;12.85;96.79
18988;BME280;5494;51.796;10.952;2023-04-28T11:57:17;98649.38;;;12.81;97.03
18988;BME280;5494;51.796;10.952;2023-04-28T11:59:46;98635.81;;;13.15;96.27
18988;BME280;5494;51.796;10.952;2023-04-28T12:02:24;98626.09;;;13.17;94.99
18988;BME280;5494;51.796;10.952;2023-04-28T12:04:55;98613.06;;;13.30;95.54
18988;BME280;5494;51.796;10.952;2023-04-28T12:07:23;98608.34;;;13.35;95.49
18988;BME280;5494;51.796;10.952;2023-04-28T12:10:11;98614.06;;;13.91;100.00
18988;BME280;5494;51.796;10.952;2023-04-28T12:12:40;98610.34;;;13.82;94.62
18988;BME280;5494;51.796;10.952;2023-04-28T12:15:18;98609.25;;;13.85;94.56
18988;BME280;5494;51.796;10.952;2023-04-28T12:17:49;98596.34;;;13.58;95.12
18988;BME280;5494;51.796;10.952;2023-04-28T12:20:33;98595.09;;;13.76;96.76
18988;BME280;5494;51.796;10.952;2023-04-28T12:23:04;98598.88;;;14.45;92.30
18988;BME280;5494;51.796;10.952;2023-04-28T12:25:42;98595.69;;;14.76;90.51
18988;BME280;5494;51.796;10.952;2023-04-28T12:28:10;98582.13;;;14.71;88.77
18988;BME280;5494;51.796;10.952;2023-04-28T12:30:38;98586.91;;;14.88;88.89
18988;BME280;5494;51.796;10.952;2023-04-28T12:33:22;98583.19;;;14.08;93.18
18988;BME280;5494;51.796;10.952;2023-04-28T12:35:51;98583.94;;;14.10;96.21
18988;BME280;5494;51.796;10.952;2023-04-28T12:38:20;98569.59;;;14.40;94.18
18988;BME280;5494;51.796;10.952;2023-04-28T12:40:48;98570.66;;;14.25;95.73
18988;BME280;5494;51.796;10.952;2023-04-28T12:43:16;98571.13;;;14.66;93.99
18988;BME280;5494;51.796;10.952;2023-04-28T12:45:45;98570.25;;;14.31;94.55
18988;BME280;5494;51.796;10.952;2023-04-28T12:48:13;98571.41;;;13.90;99.68
18988;BME280;5494;51.796;10.952;2023-04-28T12:50:43;98580.13;;;13.78;100.00
18988;BME280;5494;51.796;10.952;2023-04-28T12:53:11;98579.47;;;13.87;97.95
18988;BME280;5494;51.796;10.952;2023-04-28T12:55:39;98571.41;;;14.03;97.69
18988;BME280;5494;51.796;10.952;2023-04-28T12:58:07;98568.31;;;14.45;96.41
18988;BME280;5494;51.796;10.952;2023-04-28T13:00:35;98572.03;;;14.30;88.87
18988;BME280;5494;51.796;10.952;2023-04-28T13:03:04;98567.72;;;14.42;87.54
18988;BME280;5494;51.796;10.952;2023-04-28T13:05:32;98567.72;;;14.42;86.90
18988;BME280;5494;51.796;10.952;2023-04-28T13:08:03;98564.66;;;14.48;86.17
18988;BME280;5494;51.796;10.952;2023-04-28T13:10:31;98564.31;;;14.52;85.05
18988;BME280;5494;51.796;10.952;2023-04-28T13:12:59;98560.66;;;14.66;83.04
18988;BME280;5494;51.796;10.952;2023-04-28T13:15:27;98558.56;;;14.71;84.35
18988;BME280;5494;51.796;10.952;2023-04-28T13:17:55;98556.41;;;14.65;82.80
18988;BME280;5494;51.796;10.952;2023-04-28T13:20:25;98548.59;;;14.52;84.86
18988;BME280;5494;51.796;10.952;2023-04-28T13:22:53;98552.66;;;14.33;85.77
18988;BME280;5494;51.796;10.952;2023-04-28T13:25:25;98559.13;;;14.16;87.75